createdAt,value
2022-10-07T00:01:06.431Z,6.23
2022-10-07T00:03:35.145Z,6.18
2022-10-07T00:06:05.584Z,6.16
2022-10-07T00:08:35.427Z,6.15
2022-10-07T00:11:08.495Z,6.17
2022-10-07T00:13:39.621Z,6.28
2022-10-07T00:16:10.642Z,6.24
2022-10-07T00:18:40.505Z,6.17
2022-10-07T00:21:11.184Z,6.13
2022-10-07T00:23:39.328Z,6.10
2022-10-07T00:26:10.821Z,6.07
2022-10-07T00:28:38.865Z,6.05
2022-10-07T00:31:09.455Z,6.10
2022-10-07T00:33:40.812Z,6.18
2022-10-07T00:36:10.062Z,6.19
2022-10-07T00:38:38.081Z,6.14
2022-10-07T00:41:06.384Z,6.07
2022-10-07T00:43:36.003Z,6.02
2022-10-07T00:46:08.936Z,5.98
2022-10-07T00:48:38.624Z,5.93
2022-10-07T00:51:09.291Z,5.89
2022-10-07T00:53:42.101Z,5.85
2022-10-07T00:56:11.242Z,5.81
2022-10-07T00:58:43.091Z,5.77
2022-10-07T01:01:11.231Z,5.79
2022-10-07T01:03:39.525Z,5.79
2022-10-07T01:06:07.513Z,5.82
2022-10-07T01:08:35.660Z,5.93
2022-10-07T01:11:14.781Z,5.89
2022-10-07T01:13:59.766Z,5.82
2022-10-07T01:16:35.716Z,5.78
2022-10-07T01:19:14.453Z,5.73
2022-10-07T01:21:56.116Z,5.70
2022-10-07T01:24:35.652Z,5.68
2022-10-07T01:27:11.148Z,5.69
2022-10-07T01:29:42.030Z,5.77
2022-10-07T01:32:17.240Z,5.70
2022-10-07T01:34:47.881Z,5.72
2022-10-07T01:37:19.738Z,5.69
2022-10-07T01:39:51.047Z,5.62
2022-10-07T01:42:21.613Z,5.63
2022-10-07T01:44:55.040Z,5.64
2022-10-07T01:47:23.287Z,5.63
2022-10-07T01:49:51.301Z,5.55
2022-10-07T01:52:34.900Z,5.47
2022-10-07T01:55:30.061Z,5.45
2022-10-07T01:58:10.009Z,5.43
2022-10-07T02:00:44.282Z,5.37
2022-10-07T02:03:29.531Z,5.38
2022-10-07T02:06:07.343Z,5.43
2022-10-07T02:08:44.028Z,5.46
2022-10-07T02:11:15.603Z,5.44
2022-10-07T02:14:00.867Z,5.47
2022-10-07T02:16:38.350Z,5.48
2022-10-07T02:19:10.960Z,5.47
2022-10-07T02:21:40.114Z,5.50
2022-10-07T02:24:11.712Z,5.45
2022-10-07T02:26:43.475Z,5.47
2022-10-07T02:29:15.561Z,5.44
2022-10-07T02:31:46.103Z,5.38
2022-10-07T02:34:19.987Z,5.35
2022-10-07T02:36:54.304Z,5.35
2022-10-07T02:39:22.489Z,5.42
2022-10-07T02:42:03.537Z,5.51
2022-10-07T02:44:40.930Z,5.57
2022-10-07T02:47:16.124Z,5.62
2022-10-07T02:49:47.645Z,5.64
2022-10-07T02:52:19.036Z,5.65
2022-10-07T02:54:52.554Z,5.64
2022-10-07T02:57:22.821Z,5.59
2022-10-07T02:59:54.558Z,5.57
2022-10-07T03:02:28.382Z,5.55
2022-10-07T03:04:58.088Z,5.49
2022-10-07T03:07:26.728Z,5.43
2022-10-07T03:09:55.254Z,5.38
2022-10-07T03:12:23.189Z,5.39
2022-10-07T03:14:53.746Z,5.34
2022-10-07T03:17:22.362Z,5.33
2022-10-07T03:19:51.143Z,5.31
2022-10-07T03:22:19.132Z,5.27
2022-10-07T03:24:47.004Z,5.23
2022-10-07T03:27:14.972Z,5.17
2022-10-07T03:29:43.188Z,5.15
2022-10-07T03:32:13.081Z,5.14
2022-10-07T03:34:41.095Z,5.10
2022-10-07T03:37:09.297Z,5.09
2022-10-07T03:39:37.279Z,5.12
2022-10-07T03:42:05.975Z,5.13
2022-10-07T03:44:35.566Z,5.16
2022-10-07T03:47:07.612Z,5.12
2022-10-07T03:49:41.486Z,5.08
2022-10-07T03:52:09.725Z,5.03
2022-10-07T03:54:37.863Z,4.99
2022-10-07T03:57:28.249Z,4.98
2022-10-07T03:59:58.758Z,4.98
2022-10-07T04:02:26.790Z,4.98
2022-10-07T04:04:57.433Z,5.01
2022-10-07T04:07:25.896Z,5.05
2022-10-07T04:09:53.887Z,5.15
2022-10-07T04:12:22.499Z,5.32
2022-10-07T04:14:50.471Z,5.34
2022-10-07T04:17:19.645Z,5.38
2022-10-07T04:19:47.798Z,5.37
2022-10-07T04:22:19.181Z,5.40
2022-10-07T04:25:13.446Z,5.41
2022-10-07T04:27:51.613Z,5.41
2022-10-07T04:30:20.035Z,5.37
2022-10-07T04:32:50.566Z,5.38
2022-10-07T04:35:22.827Z,5.33
2022-10-07T04:37:54.418Z,5.30
2022-10-07T04:40:25.475Z,5.24
2022-10-07T04:43:10.908Z,5.15
2022-10-07T04:45:40.587Z,5.14
2022-10-07T04:48:09.644Z,5.14
2022-10-07T04:50:40.021Z,5.14
2022-10-07T04:53:14.186Z,5.22
2022-10-07T04:55:44.470Z,5.33
2022-10-07T04:58:13.640Z,5.39
2022-10-07T05:00:46.225Z,5.45
2022-10-07T05:03:16.222Z,5.52
2022-10-07T05:05:45.570Z,5.70
2022-10-07T05:08:18.798Z,5.69
2022-10-07T05:10:47.809Z,5.65
2022-10-07T05:13:17.806Z,5.66
2022-10-07T05:15:51.967Z,5.69
2022-10-07T05:18:21.353Z,5.77
2022-10-07T05:20:50.590Z,5.80
2022-10-07T05:23:27.107Z,5.89
2022-10-07T05:25:59.460Z,6.01
2022-10-07T05:28:27.849Z,6.03
2022-10-07T05:31:04.145Z,6.00
2022-10-07T05:33:32.322Z,5.98
2022-10-07T05:36:00.446Z,5.99
2022-10-07T05:38:30.076Z,5.95
2022-10-07T05:41:02.272Z,6.00
2022-10-07T05:43:34.566Z,5.99
2022-10-07T05:46:07.232Z,5.95
2022-10-07T05:48:40.161Z,5.97
2022-10-07T05:51:09.571Z,5.96
2022-10-07T05:53:41.106Z,5.97
2022-10-07T05:56:10.968Z,6.07
2022-10-07T05:58:39.683Z,6.10
2022-10-07T06:01:15.776Z,6.10
2022-10-07T06:03:49.314Z,6.01
2022-10-07T06:06:17.588Z,5.99
2022-10-07T06:08:47.953Z,5.96
2022-10-07T06:11:35.953Z,5.95
2022-10-07T06:14:05.042Z,5.99
2022-10-07T06:16:33.759Z,6.03
2022-10-07T06:19:02.258Z,6.12
2022-10-07T06:21:32.266Z,6.28
2022-10-07T06:24:05.857Z,6.29
2022-10-07T06:26:35.914Z,6.32
2022-10-07T06:29:05.525Z,6.34
2022-10-07T06:31:33.911Z,6.44
2022-10-07T06:34:04.744Z,6.44
2022-10-07T06:36:34.223Z,6.50
2022-10-07T06:39:02.571Z,6.42
2022-10-07T06:41:38.386Z,6.44
2022-10-07T06:44:20.180Z,6.39
2022-10-07T06:46:48.174Z,6.40
2022-10-07T06:49:17.099Z,6.43
2022-10-07T06:51:46.642Z,6.59
2022-10-07T06:54:14.750Z,6.87
2022-10-07T06:56:44.040Z,7.11
2022-10-07T06:59:12.421Z,7.41
2022-10-07T07:01:58.012Z,7.58
2022-10-07T07:04:26.535Z,7.63
2022-10-07T07:06:54.868Z,7.58
2022-10-07T07:09:22.891Z,7.46
2022-10-07T07:11:56.591Z,7.33
2022-10-07T07:14:28.835Z,7.18
2022-10-07T07:17:04.690Z,7.08
2022-10-07T07:19:33.153Z,7.07
2022-10-07T07:22:01.774Z,7.16
2022-10-07T07:24:29.773Z,7.37
2022-10-07T07:26:59.795Z,7.49
2022-10-07T07:29:30.700Z,7.66
2022-10-07T07:32:02.118Z,7.78
2022-10-07T07:34:33.953Z,7.87
2022-10-07T07:37:01.750Z,7.94
2022-10-07T07:39:35.668Z,8.11
2022-10-07T07:42:10.360Z,8.41
2022-10-07T07:44:38.871Z,8.66
2022-10-07T07:47:10.416Z,8.69
2022-10-07T07:49:39.539Z,8.80
2022-10-07T07:52:10.930Z,8.61
2022-10-07T07:54:43.825Z,8.45
2022-10-07T07:57:13.206Z,8.44
2022-10-07T07:59:42.602Z,8.43
2022-10-07T08:02:13.043Z,8.47
2022-10-07T08:04:44.730Z,8.43
2022-10-07T08:07:13.595Z,8.43
2022-10-07T08:09:44.529Z,8.46
2022-10-07T08:12:16.451Z,8.49
2022-10-07T08:14:44.446Z,8.60
2022-10-07T08:17:13.847Z,8.68
2022-10-07T08:19:42.172Z,8.86
2022-10-07T08:22:13.694Z,9.06
2022-10-07T08:24:43.054Z,9.40
2022-10-07T08:27:11.121Z,9.37
2022-10-07T08:29:40.492Z,9.52
2022-10-07T08:32:08.612Z,9.59
2022-10-07T08:34:36.645Z,9.78
2022-10-07T08:37:04.639Z,9.78
2022-10-07T08:39:32.524Z,9.83
2022-10-07T08:42:08.401Z,9.96
2022-10-07T08:44:41.597Z,10.01
2022-10-07T08:47:19.047Z,10.19
2022-10-07T08:49:58.561Z,10.31
2022-10-07T08:52:33.170Z,10.15
2022-10-07T08:55:01.619Z,10.23
2022-10-07T08:57:45.755Z,10.28
2022-10-07T09:00:21.067Z,10.29
2022-10-07T09:03:07.300Z,10.43
2022-10-07T09:05:41.236Z,10.69
2022-10-07T09:08:17.242Z,10.83
2022-10-07T09:10:49.617Z,10.95
2022-10-07T09:13:21.045Z,11.14
2022-10-07T09:16:12.498Z,11.27
2022-10-07T09:18:44.987Z,11.20
2022-10-07T09:21:17.157Z,11.23
2022-10-07T09:23:47.356Z,11.19
2022-10-07T09:26:16.599Z,11.33
2022-10-07T09:28:44.647Z,11.44
2022-10-07T09:31:16.260Z,11.60
2022-10-07T09:33:46.779Z,11.78
2022-10-07T09:36:18.995Z,11.75
2022-10-07T09:38:49.110Z,11.77
2022-10-07T09:41:20.676Z,11.72
2022-10-07T09:43:58.119Z,11.90
2022-10-07T09:46:47.218Z,12.18
2022-10-07T09:49:32.449Z,12.35
2022-10-07T09:52:01.884Z,12.40
2022-10-07T09:54:31.718Z,12.53
2022-10-07T09:57:01.628Z,12.71
2022-10-07T09:59:32.814Z,12.63
2022-10-07T10:02:10.667Z,12.65
2022-10-07T10:04:47.298Z,12.77
2022-10-07T10:07:20.116Z,12.78
2022-10-07T10:09:50.632Z,13.00
2022-10-07T10:12:21.039Z,13.06
2022-10-07T10:14:50.097Z,13.23
2022-10-07T10:17:31.971Z,13.48
2022-10-07T10:20:30.819Z,13.57
2022-10-07T10:23:00.194Z,13.92
2022-10-07T10:25:58.441Z,13.94
2022-10-07T10:28:42.915Z,14.12
2022-10-07T10:31:23.688Z,14.17
2022-10-07T10:33:59.634Z,14.39
2022-10-07T10:36:31.832Z,14.43
2022-10-07T10:39:04.645Z,14.84
2022-10-07T10:41:40.045Z,14.92
2022-10-07T10:44:28.325Z,14.97
2022-10-07T10:47:02.126Z,14.93
2022-10-07T10:49:38.594Z,15.12
2022-10-07T10:52:21.094Z,15.53
2022-10-07T10:55:06.528Z,15.76
2022-10-07T10:57:43.980Z,15.73
2022-10-07T11:00:16.713Z,15.79
2022-10-07T11:03:01.723Z,15.98
2022-10-07T11:05:34.873Z,16.13
2022-10-07T11:08:08.706Z,16.44
2022-10-07T11:10:41.547Z,16.54
2022-10-07T11:13:23.887Z,16.53
2022-10-07T11:15:56.952Z,16.80
2022-10-07T11:18:42.238Z,16.91
2022-10-07T11:21:18.164Z,17.01
2022-10-07T11:23:53.831Z,17.38
2022-10-07T11:26:32.263Z,17.50
2022-10-07T11:29:19.378Z,17.68
2022-10-07T11:31:57.369Z,17.66
2022-10-07T11:34:34.863Z,17.76
2022-10-07T11:37:09.612Z,17.87
2022-10-07T11:39:39.177Z,17.61
2022-10-07T11:42:10.977Z,17.98
2022-10-07T11:44:49.140Z,18.17
2022-10-07T11:47:23.593Z,18.08
2022-10-07T11:49:57.957Z,17.71
2022-10-07T11:52:29.790Z,18.21
2022-10-07T11:55:04.002Z,17.92
2022-10-07T11:57:35.259Z,18.11
2022-10-07T12:00:08.089Z,18.21
2022-10-07T12:02:45.426Z,17.71
2022-10-07T12:05:57.482Z,17.87
2022-10-07T12:08:32.848Z,17.93
2022-10-07T12:11:43.814Z,17.87
2022-10-07T12:14:41.949Z,18.13
2022-10-07T12:17:30.199Z,17.88
2022-10-07T12:20:44.916Z,18.01
2022-10-07T12:23:49.379Z,17.91
2022-10-07T12:26:53.611Z,18.30
2022-10-07T12:29:29.905Z,18.45
2022-10-07T12:31:58.162Z,18.68
2022-10-07T12:34:39.085Z,18.40
2022-10-07T12:37:45.184Z,18.50
2022-10-07T12:40:18.447Z,18.96
2022-10-07T12:42:59.299Z,18.85
2022-10-07T12:45:30.894Z,18.97
2022-10-07T12:48:01.774Z,19.33
2022-10-07T12:50:33.400Z,19.03
2022-10-07T12:53:03.877Z,19.27
2022-10-07T12:55:36.958Z,19.72
2022-10-07T12:58:38.514Z,19.18
2022-10-07T13:01:23.058Z,19.47
2022-10-07T13:04:31.389Z,19.31
2022-10-07T13:07:39.743Z,19.53
2022-10-07T13:10:29.152Z,19.54
2022-10-07T13:13:04.294Z,19.68
2022-10-07T13:15:42.622Z,19.57
2022-10-07T13:18:20.227Z,20.48
2022-10-07T13:21:03.520Z,20.47
2022-10-07T13:23:32.432Z,20.08
2022-10-07T13:26:02.730Z,19.96
2022-10-07T13:28:38.480Z,19.79
2022-10-07T13:31:17.922Z,20.00
2022-10-07T13:33:46.381Z,20.63
2022-10-07T13:36:17.445Z,20.22
2022-10-07T13:38:47.600Z,20.00
2022-10-07T13:41:21.320Z,20.29
2022-10-07T13:43:52.445Z,20.11
2022-10-07T13:46:23.784Z,19.85
2022-10-07T13:48:54.998Z,20.02
2022-10-07T13:51:29.851Z,20.56
2022-10-07T13:53:59.922Z,20.53
2022-10-07T13:56:31.742Z,20.48
2022-10-07T13:59:00.883Z,20.63
2022-10-07T14:01:32.545Z,20.43
2022-10-07T14:04:11.402Z,20.42
2022-10-07T14:06:49.306Z,20.86
2022-10-07T14:09:18.899Z,20.75
2022-10-07T14:11:48.291Z,20.28
2022-10-07T14:14:19.020Z,20.53
2022-10-07T14:16:54.208Z,20.65
2022-10-07T14:19:22.354Z,20.63
2022-10-07T14:21:50.503Z,20.57
2022-10-07T14:24:21.124Z,20.27
2022-10-07T14:26:49.037Z,19.80
2022-10-07T14:29:35.579Z,19.42
2022-10-07T14:32:30.803Z,19.77
2022-10-07T14:35:22.048Z,19.76
2022-10-07T14:37:50.284Z,19.63
2022-10-07T14:40:21.077Z,19.89
2022-10-07T14:42:54.474Z,20.13
2022-10-07T14:45:23.709Z,20.01
2022-10-07T14:47:52.965Z,19.88
2022-10-07T14:50:21.791Z,19.47
2022-10-07T14:52:52.754Z,19.71
2022-10-07T14:55:24.621Z,19.46
2022-10-07T14:57:52.816Z,18.96
2022-10-07T15:00:22.662Z,19.23
2022-10-07T15:02:51.323Z,19.21
2022-10-07T15:05:20.729Z,19.07
2022-10-07T15:07:49.927Z,19.21
2022-10-07T15:10:20.658Z,19.14
2022-10-07T15:12:49.342Z,19.27
2022-10-07T15:15:18.166Z,19.06
2022-10-07T15:17:47.534Z,18.95
2022-10-07T15:20:16.890Z,18.64
2022-10-07T15:22:46.505Z,18.52
2022-10-07T15:25:15.669Z,18.41
2022-10-07T15:27:43.872Z,18.45
2022-10-07T15:30:13.329Z,18.60
2022-10-07T15:32:41.288Z,18.64
2022-10-07T15:35:09.848Z,18.67
2022-10-07T15:37:37.860Z,18.81
2022-10-07T15:40:08.796Z,18.68
2022-10-07T15:42:37.078Z,18.44
2022-10-07T15:45:05.554Z,18.42
2022-10-07T15:47:34.406Z,18.38
2022-10-07T15:50:02.436Z,18.33
2022-10-07T15:52:30.473Z,18.20
2022-10-07T15:54:58.386Z,18.01
2022-10-07T15:57:27.604Z,17.84
2022-10-07T15:59:55.533Z,17.87
2022-10-07T16:02:24.693Z,17.69
2022-10-07T16:04:52.923Z,17.57
2022-10-07T16:07:20.805Z,17.47
2022-10-07T16:09:48.985Z,17.40
2022-10-07T16:12:17.092Z,17.29
2022-10-07T16:14:47.357Z,17.24
2022-10-07T16:17:15.336Z,17.08
2022-10-07T16:19:43.212Z,16.95
2022-10-07T16:22:11.097Z,16.84
2022-10-07T16:24:39.673Z,16.72
2022-10-07T16:27:07.709Z,16.58
2022-10-07T16:29:53.299Z,16.48
2022-10-07T16:32:22.608Z,16.34
2022-10-07T16:34:50.748Z,16.24
2022-10-07T16:37:18.790Z,16.10
2022-10-07T16:39:46.848Z,15.91
2022-10-07T16:42:14.793Z,15.76
2022-10-07T16:44:45.304Z,15.63
2022-10-07T16:47:15.305Z,15.48
2022-10-07T16:49:45.706Z,15.36
2022-10-07T16:52:13.942Z,15.27
2022-10-07T16:54:43.126Z,15.17
2022-10-07T16:57:11.032Z,15.08
2022-10-07T16:59:39.537Z,15.00
2022-10-07T17:02:07.469Z,14.92
2022-10-07T17:04:35.463Z,14.84
2022-10-07T17:07:05.701Z,14.75
2022-10-07T17:09:33.589Z,14.64
2022-10-07T17:12:01.573Z,14.52
2022-10-07T17:14:31.545Z,14.40
2022-10-07T17:17:00.410Z,14.28
2022-10-07T17:19:29.423Z,14.19
2022-10-07T17:21:58.440Z,14.13
2022-10-07T17:24:28.192Z,14.04
2022-10-07T17:26:56.371Z,13.96
2022-10-07T17:29:26.151Z,13.93
2022-10-07T17:31:55.043Z,13.90
2022-10-07T17:34:23.710Z,13.89
2022-10-07T17:36:51.682Z,13.84
2022-10-07T17:39:20.014Z,13.81
2022-10-07T17:41:49.467Z,13.79
2022-10-07T17:44:17.742Z,13.74
2022-10-07T17:46:46.851Z,13.68
2022-10-07T17:49:14.999Z,13.66
2022-10-07T17:51:43.703Z,13.61
2022-10-07T17:54:13.493Z,13.51
2022-10-07T17:56:45.033Z,13.44
2022-10-07T17:59:14.536Z,13.37
2022-10-07T18:01:42.832Z,13.29
2022-10-07T18:04:14.887Z,13.22
2022-10-07T18:06:43.257Z,13.21
2022-10-07T18:09:14.910Z,13.19
2022-10-07T18:12:00.400Z,13.27
2022-10-07T18:14:52.564Z,13.18
2022-10-07T18:17:22.119Z,13.10
2022-10-07T18:19:50.392Z,13.03
2022-10-07T18:22:19.215Z,12.97
2022-10-07T18:24:47.298Z,12.96
2022-10-07T18:27:15.413Z,12.88
2022-10-07T18:29:45.181Z,12.83
2022-10-07T18:32:13.083Z,12.80
2022-10-07T18:34:41.234Z,12.74
2022-10-07T18:37:09.299Z,12.74
2022-10-07T18:39:37.442Z,12.68
2022-10-07T18:42:05.540Z,12.60
2022-10-07T18:44:33.786Z,12.53
2022-10-07T18:47:03.019Z,12.46
2022-10-07T18:49:31.018Z,12.38
2022-10-07T18:51:58.953Z,12.37
2022-10-07T18:54:27.199Z,12.35
2022-10-07T18:56:55.285Z,12.34
2022-10-07T18:59:23.386Z,12.40
2022-10-07T19:01:51.500Z,12.33
2022-10-07T19:04:21.337Z,12.33
2022-10-07T19:06:49.776Z,12.37
2022-10-07T19:09:20.300Z,12.33
2022-10-07T19:11:48.680Z,12.31
2022-10-07T19:14:16.368Z,12.37
2022-10-07T19:16:46.358Z,12.40
2022-10-07T19:19:17.632Z,12.45
2022-10-07T19:21:48.392Z,12.40
2022-10-07T19:24:17.196Z,12.41
2022-10-07T19:26:48.269Z,12.39
2022-10-07T19:29:17.854Z,12.32
2022-10-07T19:31:48.530Z,12.26
2022-10-07T19:34:18.669Z,12.24
2022-10-07T19:36:48.652Z,12.17
2022-10-07T19:39:18.444Z,12.12
2022-10-07T19:41:46.942Z,12.08
2022-10-07T19:44:16.250Z,12.03
2022-10-07T19:46:44.545Z,12.02
2022-10-07T19:49:12.619Z,11.98
2022-10-07T19:51:42.254Z,11.95
2022-10-07T19:54:12.990Z,11.94
2022-10-07T19:56:41.874Z,11.90
2022-10-07T19:59:11.700Z,11.88
2022-10-07T20:01:42.297Z,11.82
2022-10-07T20:04:13.144Z,11.74
2022-10-07T20:06:42.102Z,11.70
2022-10-07T20:09:14.145Z,11.65
2022-10-07T20:11:43.101Z,11.60
2022-10-07T20:14:11.449Z,11.61
2022-10-07T20:16:39.817Z,11.62
2022-10-07T20:19:12.102Z,11.60
2022-10-07T20:21:40.210Z,11.54
2022-10-07T20:24:09.519Z,11.50
2022-10-07T20:26:39.548Z,11.45
2022-10-07T20:29:10.120Z,11.42
2022-10-07T20:31:41.356Z,11.42
2022-10-07T20:34:12.427Z,11.40
2022-10-07T20:36:41.346Z,11.40
2022-10-07T20:39:32.560Z,11.43
2022-10-07T20:42:19.857Z,11.42
2022-10-07T20:44:48.997Z,11.40
2022-10-07T20:47:17.587Z,11.40
2022-10-07T20:49:45.719Z,11.35
2022-10-07T20:52:16.608Z,11.33
2022-10-07T20:54:45.188Z,11.32
2022-10-07T20:57:16.274Z,11.39
2022-10-07T20:59:44.864Z,11.34
2022-10-07T21:02:14.096Z,11.33
2022-10-07T21:04:42.698Z,11.36
2022-10-07T21:07:11.161Z,11.38
2022-10-07T21:09:39.822Z,11.41
2022-10-07T21:12:10.076Z,11.38
2022-10-07T21:14:39.374Z,11.36
2022-10-07T21:17:07.895Z,11.30
2022-10-07T21:19:36.617Z,11.27
2022-10-07T21:22:05.711Z,11.25
2022-10-07T21:24:35.123Z,11.22
2022-10-07T21:27:04.182Z,11.26
2022-10-07T21:29:32.264Z,11.26
2022-10-07T21:32:01.972Z,11.23
2022-10-07T21:34:30.590Z,11.20
2022-10-07T21:36:59.057Z,11.19
2022-10-07T21:39:27.015Z,11.18
2022-10-07T21:41:55.523Z,11.16
2022-10-07T21:44:23.508Z,11.17
2022-10-07T21:46:51.558Z,11.18
2022-10-07T21:49:20.913Z,11.13
2022-10-07T21:51:48.866Z,11.12
2022-10-07T21:54:16.879Z,11.14
2022-10-07T21:56:46.281Z,11.14
2022-10-07T21:59:14.464Z,11.18
2022-10-07T22:01:43.172Z,11.22
2022-10-07T22:04:17.137Z,11.31
2022-10-07T22:07:04.297Z,11.40
2022-10-07T22:09:32.369Z,11.47
2022-10-07T22:12:00.556Z,11.54
2022-10-07T22:14:28.616Z,11.59
2022-10-07T22:16:56.615Z,11.67
2022-10-07T22:19:25.204Z,11.72
2022-10-07T22:21:55.186Z,11.80
2022-10-07T22:24:23.996Z,11.85
2022-10-07T22:26:52.256Z,11.89
2022-10-07T22:29:22.830Z,11.94
2022-10-07T22:31:50.862Z,11.97
2022-10-07T22:34:37.066Z,12.05
2022-10-07T22:37:06.462Z,12.11
2022-10-07T22:39:34.437Z,12.16
2022-10-07T22:42:03.710Z,12.22
2022-10-07T22:44:31.784Z,12.24
2022-10-07T22:47:00.340Z,12.26
2022-10-07T22:49:30.220Z,12.26
2022-10-07T22:51:59.395Z,12.27
2022-10-07T22:54:29.676Z,12.30
2022-10-07T22:56:57.638Z,12.32
2022-10-07T22:59:25.746Z,12.32
2022-10-07T23:01:53.930Z,12.32
2022-10-07T23:04:21.893Z,12.36
2022-10-07T23:06:49.932Z,12.37
2022-10-07T23:09:18.028Z,12.39
2022-10-07T23:11:47.355Z,12.41
2022-10-07T23:14:15.386Z,12.44
2022-10-07T23:16:44.162Z,12.44
2022-10-07T23:19:12.261Z,12.43
2022-10-07T23:21:40.288Z,12.44
2022-10-07T23:24:09.857Z,12.44
2022-10-07T23:26:38.271Z,12.44
2022-10-07T23:29:08.473Z,12.47
2022-10-07T23:31:36.535Z,12.47
2022-10-07T23:34:06.291Z,12.48
2022-10-07T23:36:35.124Z,12.50
2022-10-07T23:39:03.268Z,12.49
2022-10-07T23:41:32.493Z,12.52
2022-10-07T23:44:02.719Z,12.51
2022-10-07T23:46:34.871Z,12.52
2022-10-07T23:49:03.689Z,12.54
2022-10-07T23:51:32.522Z,12.55
2022-10-07T23:54:02.599Z,12.57
2022-10-07T23:56:30.981Z,12.59
2022-10-07T23:58:59.253Z,12.59
